sensor_id;sensor_type;location;lat;lon;timestamp;temperature;humidity
70269;DHT22;58514;48.398;-4.274;2023-01-13T00:01:43;9.20;99.90
70269;DHT22;58514;48.398;-4.274;2023-01-13T00:04:09;9.20;99.90
70269;DHT22;58514;48.398;-4.274;2023-01-13T00:06:35;9.20;99.90
70269;DHT22;58514;48.398;-4.274;2023-01-13T00:09:03;9.20;99.90
70269;DHT22;58514;48.398;-4.274;2023-01-13T00:11:29;9.20;99.90
70269;DHT22;58514;48.398;-4.274;2023-01-13T00:13:54;9.20;99.90
70269;DHT22;58514;48.398;-4.274;2023-01-13T00:16:20;9.20;99.90
70269;DHT22;58514;48.398;-4.274;2023-01-13T00:18:46;9.20;99.90
70269;DHT22;58514;48.398;-4.274;2023-01-13T00:21:13;9.20;99.90
70269;DHT22;58514;48.398;-4.274;2023-01-13T00:23:39;9.20;99.90
70269;DHT22;58514;48.398;-4.274;2023-01-13T00:26:05;9.20;99.90
70269;DHT22;58514;48.398;-4.274;2023-01-13T00:28:31;9.20;99.90
70269;DHT22;58514;48.398;-4.274;2023-01-13T00:31:03;9.20;99.90
70269;DHT22;58514;48.398;-4.274;2023-01-13T00:33:28;9.20;99.90
70269;DHT22;58514;48.398;-4.274;2023-01-13T00:35:57;9.20;99.90
70269;DHT22;58514;48.398;-4.274;2023-01-13T00:38:23;9.20;99.90
70269;DHT22;58514;48.398;-4.274;2023-01-13T00:41:00;9.20;99.90
70269;DHT22;58514;48.398;-4.274;2023-01-13T00:43:26;9.20;99.90
70269;DHT22;58514;48.398;-4.274;2023-01-13T00:45:52;9.20;99.90
70269;DHT22;58514;48.398;-4.274;2023-01-13T00:48:18;9.20;99.90
70269;DHT22;58514;48.398;-4.274;2023-01-13T00:50:44;9.30;99.90
70269;DHT22;58514;48.398;-4.274;2023-01-13T00:53:10;9.30;99.90
70269;DHT22;58514;48.398;-4.274;2023-01-13T00:55:36;9.30;99.90
70269;DHT22;58514;48.398;-4.274;2023-01-13T00:58:02;9.30;99.90
70269;DHT22;58514;48.398;-4.274;2023-01-13T01:00:28;9.30;99.90
70269;DHT22;58514;48.398;-4.274;2023-01-13T01:02:54;9.20;99.90
70269;DHT22;58514;48.398;-4.274;2023-01-13T01:05:19;9.20;99.90
70269;DHT22;58514;48.398;-4.274;2023-01-13T01:07:45;9.20;99.90
70269;DHT22;58514;48.398;-4.274;2023-01-13T01:10:11;9.10;99.90
70269;DHT22;58514;48.398;-4.274;2023-01-13T01:12:36;9.10;99.90
70269;DHT22;58514;48.398;-4.274;2023-01-13T01:15:02;9.10;99.90
70269;DHT22;58514;48.398;-4.274;2023-01-13T01:17:30;9.10;99.90
70269;DHT22;58514;48.398;-4.274;2023-01-13T01:19:56;9.10;99.90
70269;DHT22;58514;48.398;-4.274;2023-01-13T01:22:21;9.10;99.90
70269;DHT22;58514;48.398;-4.274;2023-01-13T01:24:47;9.10;99.90
70269;DHT22;58514;48.398;-4.274;2023-01-13T01:27:12;9.00;99.90
70269;DHT22;58514;48.398;-4.274;2023-01-13T01:29:38;9.00;99.90
70269;DHT22;58514;48.398;-4.274;2023-01-13T01:32:04;9.00;99.90
70269;DHT22;58514;48.398;-4.274;2023-01-13T01:34:29;9.00;99.90
70269;DHT22;58514;48.398;-4.274;2023-01-13T01:36:55;9.00;99.90
70269;DHT22;58514;48.398;-4.274;2023-01-13T01:39:20;9.00;99.90
70269;DHT22;58514;48.398;-4.274;2023-01-13T01:41:46;9.00;99.90
70269;DHT22;58514;48.398;-4.274;2023-01-13T01:47:34;9.00;99.90
70269;DHT22;58514;48.398;-4.274;2023-01-13T01:50:00;9.00;99.90
70269;DHT22;58514;48.398;-4.274;2023-01-13T01:52:30;9.10;99.90
70269;DHT22;58514;48.398;-4.274;2023-01-13T01:54:59;9.00;99.90
70269;DHT22;58514;48.398;-4.274;2023-01-13T01:57:27;9.10;99.90
70269;DHT22;58514;48.398;-4.274;2023-01-13T01:59:54;9.10;99.90
70269;DHT22;58514;48.398;-4.274;2023-01-13T02:02:20;9.10;99.90
70269;DHT22;58514;48.398;-4.274;2023-01-13T02:04:47;9.10;99.90
70269;DHT22;58514;48.398;-4.274;2023-01-13T02:07:25;9.10;99.90
70269;DHT22;58514;48.398;-4.274;2023-01-13T02:09:51;9.20;99.90
70269;DHT22;58514;48.398;-4.274;2023-01-13T02:12:18;9.20;99.90
70269;DHT22;58514;48.398;-4.274;2023-01-13T02:15:03;9.20;99.90
70269;DHT22;58514;48.398;-4.274;2023-01-13T02:29:06;9.20;99.90
70269;DHT22;58514;48.398;-4.274;2023-01-13T02:31:44;9.20;99.90
70269;DHT22;58514;48.398;-4.274;2023-01-13T02:34:14;9.20;99.90
70269;DHT22;58514;48.398;-4.274;2023-01-13T02:36:51;9.20;99.90
70269;DHT22;58514;48.398;-4.274;2023-01-13T02:39:21;9.20;99.90
70269;DHT22;58514;48.398;-4.274;2023-01-13T02:45:49;9.20;99.90
70269;DHT22;58514;48.398;-4.274;2023-01-13T02:47:50;9.20;99.90
70269;DHT22;58514;48.398;-4.274;2023-01-13T02:50:21;9.20;99.90
70269;DHT22;58514;48.398;-4.274;2023-01-13T02:52:49;9.20;99.90
70269;DHT22;58514;48.398;-4.274;2023-01-13T02:55:17;9.20;99.90
70269;DHT22;58514;48.398;-4.274;2023-01-13T02:57:44;9.10;99.90
70269;DHT22;58514;48.398;-4.274;2023-01-13T03:00:11;9.10;99.90
70269;DHT22;58514;48.398;-4.274;2023-01-13T03:02:37;9.10;99.90
70269;DHT22;58514;48.398;-4.274;2023-01-13T03:05:03;9.10;99.90
70269;DHT22;58514;48.398;-4.274;2023-01-13T03:15:24;9.00;99.90
70269;DHT22;58514;48.398;-4.274;2023-01-13T03:20:28;8.90;99.90
70269;DHT22;58514;48.398;-4.274;2023-01-13T03:25:27;8.90;99.90
70269;DHT22;58514;48.398;-4.274;2023-01-13T03:27:58;9.00;99.90
70269;DHT22;58514;48.398;-4.274;2023-01-13T03:33:01;9.00;99.90
70269;DHT22;58514;48.398;-4.274;2023-01-13T03:38:05;9.00;99.90
70269;DHT22;58514;48.398;-4.274;2023-01-13T03:40:32;9.00;99.90
70269;DHT22;58514;48.398;-4.274;2023-01-13T03:42:59;8.90;99.90
70269;DHT22;58514;48.398;-4.274;2023-01-13T03:45:46;8.90;99.90
70269;DHT22;58514;48.398;-4.274;2023-01-13T03:48:14;8.90;99.90
70269;DHT22;58514;48.398;-4.274;2023-01-13T03:50:43;8.90;99.90
70269;DHT22;58514;48.398;-4.274;2023-01-13T03:53:11;8.90;99.90
70269;DHT22;58514;48.398;-4.274;2023-01-13T03:55:40;8.80;99.90
70269;DHT22;58514;48.398;-4.274;2023-01-13T03:58:13;8.80;99.90
70269;DHT22;58514;48.398;-4.274;2023-01-13T04:00:41;8.80;99.90
70269;DHT22;58514;48.398;-4.274;2023-01-13T04:03:09;8.80;99.90
70269;DHT22;58514;48.398;-4.274;2023-01-13T04:05:37;8.70;99.90
70269;DHT22;58514;48.398;-4.274;2023-01-13T04:08:08;8.70;99.90
70269;DHT22;58514;48.398;-4.274;2023-01-13T04:10:41;8.70;99.90
70269;DHT22;58514;48.398;-4.274;2023-01-13T04:13:13;8.60;99.90
70269;DHT22;58514;48.398;-4.274;2023-01-13T04:15:44;8.60;99.90
70269;DHT22;58514;48.398;-4.274;2023-01-13T04:18:20;8.60;99.90
70269;DHT22;58514;48.398;-4.274;2023-01-13T04:20:46;8.60;99.90
70269;DHT22;58514;48.398;-4.274;2023-01-13T04:23:12;8.60;99.90
70269;DHT22;58514;48.398;-4.274;2023-01-13T04:25:39;8.60;99.90
70269;DHT22;58514;48.398;-4.274;2023-01-13T04:28:04;8.60;99.90
70269;DHT22;58514;48.398;-4.274;2023-01-13T04:30:30;8.50;99.90
70269;DHT22;58514;48.398;-4.274;2023-01-13T04:32:56;8.50;99.90
70269;DHT22;58514;48.398;-4.274;2023-01-13T04:35:22;8.50;99.90
70269;DHT22;58514;48.398;-4.274;2023-01-13T04:37:47;8.50;99.90
70269;DHT22;58514;48.398;-4.274;2023-01-13T04:40:13;8.50;99.90
70269;DHT22;58514;48.398;-4.274;2023-01-13T04:42:38;8.50;99.90
70269;DHT22;58514;48.398;-4.274;2023-01-13T04:45:04;8.50;99.90
70269;DHT22;58514;48.398;-4.274;2023-01-13T04:47:30;8.50;99.90
70269;DHT22;58514;48.398;-4.274;2023-01-13T04:49:55;8.50;99.90
70269;DHT22;58514;48.398;-4.274;2023-01-13T04:52:21;8.50;99.90
70269;DHT22;58514;48.398;-4.274;2023-01-13T04:54:47;8.40;99.90
70269;DHT22;58514;48.398;-4.274;2023-01-13T04:57:12;8.40;99.90
70269;DHT22;58514;48.398;-4.274;2023-01-13T04:59:38;8.40;99.90
70269;DHT22;58514;48.398;-4.274;2023-01-13T05:02:06;8.40;99.90
70269;DHT22;58514;48.398;-4.274;2023-01-13T05:04:33;8.40;99.90
70269;DHT22;58514;48.398;-4.274;2023-01-13T05:06:58;8.40;99.90
70269;DHT22;58514;48.398;-4.274;2023-01-13T05:09:24;8.40;99.90
70269;DHT22;58514;48.398;-4.274;2023-01-13T05:11:50;8.40;99.90
70269;DHT22;58514;48.398;-4.274;2023-01-13T05:14:34;8.40;99.90
70269;DHT22;58514;48.398;-4.274;2023-01-13T05:17:19;8.40;99.90
70269;DHT22;58514;48.398;-4.274;2023-01-13T05:19:45;8.40;99.90
70269;DHT22;58514;48.398;-4.274;2023-01-13T05:22:11;8.50;99.90
70269;DHT22;58514;48.398;-4.274;2023-01-13T05:24:55;8.50;99.90
70269;DHT22;58514;48.398;-4.274;2023-01-13T05:27:39;8.50;99.90
70269;DHT22;58514;48.398;-4.274;2023-01-13T05:30:05;8.50;99.90
70269;DHT22;58514;48.398;-4.274;2023-01-13T05:32:30;8.40;99.90
70269;DHT22;58514;48.398;-4.274;2023-01-13T05:34:56;8.50;99.90
70269;DHT22;58514;48.398;-4.274;2023-01-13T05:37:22;8.40;99.90
70269;DHT22;58514;48.398;-4.274;2023-01-13T05:39:47;8.50;99.90
70269;DHT22;58514;48.398;-4.274;2023-01-13T05:42:31;8.50;99.90
70269;DHT22;58514;48.398;-4.274;2023-01-13T05:45:16;8.50;99.90
70269;DHT22;58514;48.398;-4.274;2023-01-13T05:47:41;8.50;99.90
70269;DHT22;58514;48.398;-4.274;2023-01-13T05:50:07;8.60;99.90
70269;DHT22;58514;48.398;-4.274;2023-01-13T05:52:33;8.60;99.90
70269;DHT22;58514;48.398;-4.274;2023-01-13T05:54:59;8.60;99.90
70269;DHT22;58514;48.398;-4.274;2023-01-13T05:57:24;8.60;99.90
70269;DHT22;58514;48.398;-4.274;2023-01-13T05:59:50;8.60;99.90
70269;DHT22;58514;48.398;-4.274;2023-01-13T06:02:15;8.60;99.90
70269;DHT22;58514;48.398;-4.274;2023-01-13T06:04:41;8.70;99.90
70269;DHT22;58514;48.398;-4.274;2023-01-13T06:07:07;8.60;99.90
70269;DHT22;58514;48.398;-4.274;2023-01-13T06:09:32;8.60;99.90
70269;DHT22;58514;48.398;-4.274;2023-01-13T06:11:58;8.60;99.90
70269;DHT22;58514;48.398;-4.274;2023-01-13T06:14:23;8.60;99.90
70269;DHT22;58514;48.398;-4.274;2023-01-13T06:16:49;8.60;99.90
70269;DHT22;58514;48.398;-4.274;2023-01-13T06:19:15;8.60;99.90
70269;DHT22;58514;48.398;-4.274;2023-01-13T06:21:41;8.60;99.90
70269;DHT22;58514;48.398;-4.274;2023-01-13T06:24:09;8.70;99.90
70269;DHT22;58514;48.398;-4.274;2023-01-13T06:26:35;8.60;99.90
70269;DHT22;58514;48.398;-4.274;2023-01-13T06:29:02;8.70;99.90
70269;DHT22;58514;48.398;-4.274;2023-01-13T06:31:28;8.70;99.90
70269;DHT22;58514;48.398;-4.274;2023-01-13T06:33:55;8.70;99.90
70269;DHT22;58514;48.398;-4.274;2023-01-13T06:36:23;8.70;99.90
70269;DHT22;58514;48.398;-4.274;2023-01-13T06:38:51;8.70;99.90
70269;DHT22;58514;48.398;-4.274;2023-01-13T06:41:17;8.80;99.90
70269;DHT22;58514;48.398;-4.274;2023-01-13T06:44:03;8.80;99.90
70269;DHT22;58514;48.398;-4.274;2023-01-13T06:46:29;8.80;99.90
70269;DHT22;58514;48.398;-4.274;2023-01-13T06:48:54;8.80;99.90
70269;DHT22;58514;48.398;-4.274;2023-01-13T06:51:20;8.80;99.90
70269;DHT22;58514;48.398;-4.274;2023-01-13T06:53:45;8.80;99.90
70269;DHT22;58514;48.398;-4.274;2023-01-13T06:56:11;8.70;99.90
70269;DHT22;58514;48.398;-4.274;2023-01-13T06:58:36;8.70;99.90
70269;DHT22;58514;48.398;-4.274;2023-01-13T07:01:02;8.70;99.90
70269;DHT22;58514;48.398;-4.274;2023-01-13T07:03:27;8.70;99.90
70269;DHT22;58514;48.398;-4.274;2023-01-13T07:05:53;8.70;99.90
70269;DHT22;58514;48.398;-4.274;2023-01-13T07:08:19;8.60;99.90
70269;DHT22;58514;48.398;-4.274;2023-01-13T07:10:45;8.60;99.90
70269;DHT22;58514;48.398;-4.274;2023-01-13T07:13:11;8.60;99.90
70269;DHT22;58514;48.398;-4.274;2023-01-13T07:16:04;8.60;99.90
70269;DHT22;58514;48.398;-4.274;2023-01-13T07:18:31;8.50;99.90
70269;DHT22;58514;48.398;-4.274;2023-01-13T07:20:57;8.50;99.90
70269;DHT22;58514;48.398;-4.274;2023-01-13T07:23:24;8.50;99.90
70269;DHT22;58514;48.398;-4.274;2023-01-13T07:25:49;8.50;99.90
70269;DHT22;58514;48.398;-4.274;2023-01-13T07:28:15;8.50;99.90
70269;DHT22;58514;48.398;-4.274;2023-01-13T07:30:41;8.50;99.90
70269;DHT22;58514;48.398;-4.274;2023-01-13T07:33:06;8.50;99.90
70269;DHT22;58514;48.398;-4.274;2023-01-13T07:35:32;8.50;99.90
70269;DHT22;58514;48.398;-4.274;2023-01-13T07:37:57;8.50;99.90
70269;DHT22;58514;48.398;-4.274;2023-01-13T07:40:23;8.50;99.90
70269;DHT22;58514;48.398;-4.274;2023-01-13T07:42:49;8.40;99.90
70269;DHT22;58514;48.398;-4.274;2023-01-13T07:45:33;8.50;99.90
70269;DHT22;58514;48.398;-4.274;2023-01-13T07:47:59;8.40;99.90
70269;DHT22;58514;48.398;-4.274;2023-01-13T07:50:24;8.50;99.90
70269;DHT22;58514;48.398;-4.274;2023-01-13T07:52:50;8.50;99.90
70269;DHT22;58514;48.398;-4.274;2023-01-13T07:55:16;8.50;99.90
70269;DHT22;58514;48.398;-4.274;2023-01-13T07:57:41;8.40;99.90
70269;DHT22;58514;48.398;-4.274;2023-01-13T08:00:07;8.50;99.90
70269;DHT22;58514;48.398;-4.274;2023-01-13T08:02:33;8.50;99.90
70269;DHT22;58514;48.398;-4.274;2023-01-13T08:04:58;8.50;99.90
70269;DHT22;58514;48.398;-4.274;2023-01-13T08:07:24;8.40;99.90
70269;DHT22;58514;48.398;-4.274;2023-01-13T08:09:50;8.40;99.90
70269;DHT22;58514;48.398;-4.274;2023-01-13T08:12:15;8.50;99.90
70269;DHT22;58514;48.398;-4.274;2023-01-13T08:15:00;8.50;99.90
70269;DHT22;58514;48.398;-4.274;2023-01-13T08:17:25;8.50;99.90
70269;DHT22;58514;48.398;-4.274;2023-01-13T08:19:51;8.50;99.90
70269;DHT22;58514;48.398;-4.274;2023-01-13T08:22:17;8.50;99.90
70269;DHT22;58514;48.398;-4.274;2023-01-13T08:24:42;8.50;99.90
70269;DHT22;58514;48.398;-4.274;2023-01-13T08:27:08;8.50;99.90
70269;DHT22;58514;48.398;-4.274;2023-01-13T08:29:33;8.50;99.90
70269;DHT22;58514;48.398;-4.274;2023-01-13T08:31:59;8.50;99.90
70269;DHT22;58514;48.398;-4.274;2023-01-13T08:34:24;8.50;99.90
70269;DHT22;58514;48.398;-4.274;2023-01-13T08:36:50;8.50;99.90
70269;DHT22;58514;48.398;-4.274;2023-01-13T08:39:16;8.50;99.90
70269;DHT22;58514;48.398;-4.274;2023-01-13T08:41:43;8.50;99.90
70269;DHT22;58514;48.398;-4.274;2023-01-13T08:44:21;8.50;99.90
70269;DHT22;58514;48.398;-4.274;2023-01-13T08:46:46;8.50;99.90
70269;DHT22;58514;48.398;-4.274;2023-01-13T08:49:12;8.50;99.90
70269;DHT22;58514;48.398;-4.274;2023-01-13T08:51:38;8.50;99.90
70269;DHT22;58514;48.398;-4.274;2023-01-13T08:54:03;8.60;99.90
70269;DHT22;58514;48.398;-4.274;2023-01-13T08:56:29;8.60;99.90
70269;DHT22;58514;48.398;-4.274;2023-01-13T08:58:58;8.60;99.90
70269;DHT22;58514;48.398;-4.274;2023-01-13T09:01:24;8.70;99.90
70269;DHT22;58514;48.398;-4.274;2023-01-13T09:03:50;8.70;99.90
70269;DHT22;58514;48.398;-4.274;2023-01-13T09:06:15;8.70;99.90
70269;DHT22;58514;48.398;-4.274;2023-01-13T09:08:41;8.70;99.90
70269;DHT22;58514;48.398;-4.274;2023-01-13T09:11:08;8.70;99.90
70269;DHT22;58514;48.398;-4.274;2023-01-13T09:13:53;8.70;99.90
70269;DHT22;58514;48.398;-4.274;2023-01-13T09:16:19;8.80;99.90
70269;DHT22;58514;48.398;-4.274;2023-01-13T09:18:44;8.80;99.90
70269;DHT22;58514;48.398;-4.274;2023-01-13T09:21:10;8.80;99.90
70269;DHT22;58514;48.398;-4.274;2023-01-13T09:23:35;8.80;99.90
70269;DHT22;58514;48.398;-4.274;2023-01-13T09:26:01;8.80;99.90
70269;DHT22;58514;48.398;-4.274;2023-01-13T09:28:26;8.80;99.90
70269;DHT22;58514;48.398;-4.274;2023-01-13T09:30:52;8.90;99.90
70269;DHT22;58514;48.398;-4.274;2023-01-13T09:33:17;8.90;99.90
70269;DHT22;58514;48.398;-4.274;2023-01-13T09:36:02;8.90;99.90
70269;DHT22;58514;48.398;-4.274;2023-01-13T09:38:27;9.00;99.90
70269;DHT22;58514;48.398;-4.274;2023-01-13T09:40:53;9.00;99.90
70269;DHT22;58514;48.398;-4.274;2023-01-13T09:43:20;9.00;99.90
70269;DHT22;58514;48.398;-4.274;2023-01-13T09:48:58;9.10;99.90
70269;DHT22;58514;48.398;-4.274;2023-01-13T09:51:29;9.10;99.90
70269;DHT22;58514;48.398;-4.274;2023-01-13T09:53:57;9.20;99.90
70269;DHT22;58514;48.398;-4.274;2023-01-13T09:56:24;9.20;99.90
70269;DHT22;58514;48.398;-4.274;2023-01-13T09:58:50;9.20;99.90
70269;DHT22;58514;48.398;-4.274;2023-01-13T10:03:51;9.30;99.90
70269;DHT22;58514;48.398;-4.274;2023-01-13T10:06:22;9.30;99.90
70269;DHT22;58514;48.398;-4.274;2023-01-13T10:08:48;9.30;99.90
70269;DHT22;58514;48.398;-4.274;2023-01-13T10:11:18;9.40;99.90
70269;DHT22;58514;48.398;-4.274;2023-01-13T10:14:09;9.40;99.90
70269;DHT22;58514;48.398;-4.274;2023-01-13T10:16:48;9.50;99.90
70269;DHT22;58514;48.398;-4.274;2023-01-13T10:24:19;9.60;99.90
70269;DHT22;58514;48.398;-4.274;2023-01-13T10:26:50;9.50;99.90
70269;DHT22;58514;48.398;-4.274;2023-01-13T10:29:19;9.60;99.90
70269;DHT22;58514;48.398;-4.274;2023-01-13T10:31:46;9.60;99.90
70269;DHT22;58514;48.398;-4.274;2023-01-13T10:34:11;9.70;99.90
70269;DHT22;58514;48.398;-4.274;2023-01-13T10:36:37;9.70;99.90
70269;DHT22;58514;48.398;-4.274;2023-01-13T10:39:14;9.80;99.90
70269;DHT22;58514;48.398;-4.274;2023-01-13T10:41:41;9.80;99.90
70269;DHT22;58514;48.398;-4.274;2023-01-13T10:44:16;9.90;99.90
70269;DHT22;58514;48.398;-4.274;2023-01-13T10:46:52;10.00;99.90
70269;DHT22;58514;48.398;-4.274;2023-01-13T10:51:47;10.10;99.90
70269;DHT22;58514;48.398;-4.274;2023-01-13T10:54:22;10.10;99.90
70269;DHT22;58514;48.398;-4.274;2023-01-13T10:56:48;10.20;99.90
70269;DHT22;58514;48.398;-4.274;2023-01-13T10:59:21;10.20;99.90
70269;DHT22;58514;48.398;-4.274;2023-01-13T11:04:26;10.30;99.90
70269;DHT22;58514;48.398;-4.274;2023-01-13T11:06:52;10.30;99.90
70269;DHT22;58514;48.398;-4.274;2023-01-13T11:09:18;10.30;99.90
70269;DHT22;58514;48.398;-4.274;2023-01-13T11:11:44;10.30;99.90
70269;DHT22;58514;48.398;-4.274;2023-01-13T11:19:49;10.50;99.90
70269;DHT22;58514;48.398;-4.274;2023-01-13T11:22:19;10.60;99.90
70269;DHT22;58514;48.398;-4.274;2023-01-13T11:24:56;10.60;99.90
70269;DHT22;58514;48.398;-4.274;2023-01-13T11:32:17;10.60;99.90
70269;DHT22;58514;48.398;-4.274;2023-01-13T11:34:44;10.50;99.90
70269;DHT22;58514;48.398;-4.274;2023-01-13T11:37:14;10.50;99.90
70269;DHT22;58514;48.398;-4.274;2023-01-13T11:42:11;10.60;99.90
70269;DHT22;58514;48.398;-4.274;2023-01-13T11:47:20;10.70;99.90
70269;DHT22;58514;48.398;-4.274;2023-01-13T11:49:47;10.70;99.90
70269;DHT22;58514;48.398;-4.274;2023-01-13T11:55:04;10.70;99.90
70269;DHT22;58514;48.398;-4.274;2023-01-13T12:02:42;10.80;99.90
70269;DHT22;58514;48.398;-4.274;2023-01-13T12:10:30;10.80;99.90
70269;DHT22;58514;48.398;-4.274;2023-01-13T12:15:27;10.70;99.90
70269;DHT22;58514;48.398;-4.274;2023-01-13T12:20:37;10.70;99.90
70269;DHT22;58514;48.398;-4.274;2023-01-13T12:23:06;10.70;99.90
70269;DHT22;58514;48.398;-4.274;2023-01-13T12:25:44;10.70;99.90
70269;DHT22;58514;48.398;-4.274;2023-01-13T12:30:58;10.70;99.90
70269;DHT22;58514;48.398;-4.274;2023-01-13T12:38:35;10.60;99.90
70269;DHT22;58514;48.398;-4.274;2023-01-13T12:43:26;10.60;99.90
70269;DHT22;58514;48.398;-4.274;2023-01-13T12:49:25;10.60;99.90
70269;DHT22;58514;48.398;-4.274;2023-01-13T12:51:33;10.60;99.90
70269;DHT22;58514;48.398;-4.274;2023-01-13T12:54:28;10.60;99.90
70269;DHT22;58514;48.398;-4.274;2023-01-13T12:56:45;10.60;99.90
70269;DHT22;58514;48.398;-4.274;2023-01-13T13:01:49;10.50;99.90
70269;DHT22;58514;48.398;-4.274;2023-01-13T13:04:19;10.50;99.90
70269;DHT22;58514;48.398;-4.274;2023-01-13T13:07:06;10.50;99.90
70269;DHT22;58514;48.398;-4.274;2023-01-13T13:09:34;10.50;99.90
70269;DHT22;58514;48.398;-4.274;2023-01-13T13:15:17;10.50;99.90
70269;DHT22;58514;48.398;-4.274;2023-01-13T13:17:43;10.50;99.90
70269;DHT22;58514;48.398;-4.274;2023-01-13T13:20:51;10.50;99.90
70269;DHT22;58514;48.398;-4.274;2023-01-13T13:22:55;10.50;99.90
70269;DHT22;58514;48.398;-4.274;2023-01-13T13:25:21;10.50;99.90
70269;DHT22;58514;48.398;-4.274;2023-01-13T13:28:02;10.50;99.90
70269;DHT22;58514;48.398;-4.274;2023-01-13T13:30:35;10.50;99.90
70269;DHT22;58514;48.398;-4.274;2023-01-13T13:35:39;10.50;99.90
70269;DHT22;58514;48.398;-4.274;2023-01-13T13:41:17;10.40;99.90
70269;DHT22;58514;48.398;-4.274;2023-01-13T13:44:13;10.40;99.90
70269;DHT22;58514;48.398;-4.274;2023-01-13T13:46:59;10.50;99.90
70269;DHT22;58514;48.398;-4.274;2023-01-13T13:49:41;10.50;99.90
70269;DHT22;58514;48.398;-4.274;2023-01-13T13:54:41;10.50;99.90
70269;DHT22;58514;48.398;-4.274;2023-01-13T13:57:15;10.50;99.90
70269;DHT22;58514;48.398;-4.274;2023-01-13T13:59:41;10.50;99.90
70269;DHT22;58514;48.398;-4.274;2023-01-13T14:02:10;10.50;99.90
70269;DHT22;58514;48.398;-4.274;2023-01-13T14:04:38;10.50;99.90
70269;DHT22;58514;48.398;-4.274;2023-01-13T14:07:15;10.50;99.90
70269;DHT22;58514;48.398;-4.274;2023-01-13T14:09:46;10.40;99.90
70269;DHT22;58514;48.398;-4.274;2023-01-13T14:12:19;10.40;99.90
70269;DHT22;58514;48.398;-4.274;2023-01-13T14:14:46;10.40;99.90
70269;DHT22;58514;48.398;-4.274;2023-01-13T14:17:23;10.30;99.90
70269;DHT22;58514;48.398;-4.274;2023-01-13T14:20:02;10.30;99.90
70269;DHT22;58514;48.398;-4.274;2023-01-13T14:22:30;10.30;99.90
70269;DHT22;58514;48.398;-4.274;2023-01-13T14:24:55;10.30;99.90
70269;DHT22;58514;48.398;-4.274;2023-01-13T14:27:24;10.20;99.90
70269;DHT22;58514;48.398;-4.274;2023-01-13T14:29:55;10.10;99.90
70269;DHT22;58514;48.398;-4.274;2023-01-13T14:32:24;10.10;99.90
70269;DHT22;58514;48.398;-4.274;2023-01-13T14:34:51;10.10;99.90
70269;DHT22;58514;48.398;-4.274;2023-01-13T14:39:55;10.10;99.90
70269;DHT22;58514;48.398;-4.274;2023-01-13T14:42:21;10.00;99.90
70269;DHT22;58514;48.398;-4.274;2023-01-13T14:44:50;10.10;99.90
70269;DHT22;58514;48.398;-4.274;2023-01-13T14:52:27;10.00;99.90
70269;DHT22;58514;48.398;-4.274;2023-01-13T14:55:12;10.00;99.90
70269;DHT22;58514;48.398;-4.274;2023-01-13T14:57:39;10.10;99.90
70269;DHT22;58514;48.398;-4.274;2023-01-13T15:02:44;10.00;99.90
70269;DHT22;58514;48.398;-4.274;2023-01-13T15:10:16;10.10;99.90
70269;DHT22;58514;48.398;-4.274;2023-01-13T15:12:42;10.10;99.90
70269;DHT22;58514;48.398;-4.274;2023-01-13T15:17:45;10.10;99.90
70269;DHT22;58514;48.398;-4.274;2023-01-13T15:20:11;10.10;99.90
70269;DHT22;58514;48.398;-4.274;2023-01-13T15:22:37;10.10;99.90
70269;DHT22;58514;48.398;-4.274;2023-01-13T15:25:03;10.10;99.90
70269;DHT22;58514;48.398;-4.274;2023-01-13T15:27:29;10.20;99.90
70269;DHT22;58514;48.398;-4.274;2023-01-13T15:29:54;10.20;99.90
70269;DHT22;58514;48.398;-4.274;2023-01-13T15:32:20;10.20;99.90
70269;DHT22;58514;48.398;-4.274;2023-01-13T15:34:46;10.20;99.90
70269;DHT22;58514;48.398;-4.274;2023-01-13T15:37:12;10.20;99.90
70269;DHT22;58514;48.398;-4.274;2023-01-13T15:39:38;10.20;99.90
70269;DHT22;58514;48.398;-4.274;2023-01-13T15:42:04;10.20;99.90
70269;DHT22;58514;48.398;-4.274;2023-01-13T15:44:48;10.10;99.90
70269;DHT22;58514;48.398;-4.274;2023-01-13T15:47:32;10.10;99.90
70269;DHT22;58514;48.398;-4.274;2023-01-13T15:49:58;10.20;99.90
70269;DHT22;58514;48.398;-4.274;2023-01-13T15:52:25;10.10;99.90
70269;DHT22;58514;48.398;-4.274;2023-01-13T15:54:51;10.10;99.90
70269;DHT22;58514;48.398;-4.274;2023-01-13T15:57:29;10.10;99.90
70269;DHT22;58514;48.398;-4.274;2023-01-13T15:59:59;10.10;99.90
70269;DHT22;58514;48.398;-4.274;2023-01-13T16:02:25;10.10;99.90
70269;DHT22;58514;48.398;-4.274;2023-01-13T16:04:51;10.10;99.90
70269;DHT22;58514;48.398;-4.274;2023-01-13T16:07:18;10.10;99.90
70269;DHT22;58514;48.398;-4.274;2023-01-13T16:09:44;10.10;99.90
70269;DHT22;58514;48.398;-4.274;2023-01-13T16:12:11;10.10;99.90
70269;DHT22;58514;48.398;-4.274;2023-01-13T16:14:36;10.10;99.90
70269;DHT22;58514;48.398;-4.274;2023-01-13T16:17:02;10.10;99.90
70269;DHT22;58514;48.398;-4.274;2023-01-13T16:19:28;10.10;99.90
70269;DHT22;58514;48.398;-4.274;2023-01-13T16:21:54;10.10;99.90
70269;DHT22;58514;48.398;-4.274;2023-01-13T16:24:19;10.10;99.90
70269;DHT22;58514;48.398;-4.274;2023-01-13T16:26:45;10.10;99.90
70269;DHT22;58514;48.398;-4.274;2023-01-13T16:29:10;10.10;99.90
70269;DHT22;58514;48.398;-4.274;2023-01-13T16:31:37;10.10;99.90
70269;DHT22;58514;48.398;-4.274;2023-01-13T16:34:03;10.10;99.90
70269;DHT22;58514;48.398;-4.274;2023-01-13T16:36:30;10.10;99.90
70269;DHT22;58514;48.398;-4.274;2023-01-13T16:38:56;10.10;99.90
70269;DHT22;58514;48.398;-4.274;2023-01-13T16:41:21;10.10;99.90
70269;DHT22;58514;48.398;-4.274;2023-01-13T16:43:49;10.10;99.90
70269;DHT22;58514;48.398;-4.274;2023-01-13T16:48:40;10.10;99.90
70269;DHT22;58514;48.398;-4.274;2023-01-13T16:51:05;10.10;99.90
70269;DHT22;58514;48.398;-4.274;2023-01-13T16:53:31;10.00;99.90
70269;DHT22;58514;48.398;-4.274;2023-01-13T16:55:56;10.00;99.90
70269;DHT22;58514;48.398;-4.274;2023-01-13T16:58:22;10.00;99.90
70269;DHT22;58514;48.398;-4.274;2023-01-13T17:00:47;10.00;99.90
70269;DHT22;58514;48.398;-4.274;2023-01-13T17:03:13;10.00;99.90
70269;DHT22;58514;48.398;-4.274;2023-01-13T17:05:43;10.00;99.90
70269;DHT22;58514;48.398;-4.274;2023-01-13T17:08:10;10.00;99.90
70269;DHT22;58514;48.398;-4.274;2023-01-13T17:10:36;10.00;99.90
70269;DHT22;58514;48.398;-4.274;2023-01-13T17:13:02;10.00;99.90
70269;DHT22;58514;48.398;-4.274;2023-01-13T17:15:28;10.00;99.90
70269;DHT22;58514;48.398;-4.274;2023-01-13T17:17:53;10.00;99.90
70269;DHT22;58514;48.398;-4.274;2023-01-13T17:20:19;10.00;99.90
70269;DHT22;58514;48.398;-4.274;2023-01-13T17:22:45;10.00;99.90
70269;DHT22;58514;48.398;-4.274;2023-01-13T17:25:11;10.00;99.90
70269;DHT22;58514;48.398;-4.274;2023-01-13T17:27:37;10.00;99.90
70269;DHT22;58514;48.398;-4.274;2023-01-13T17:30:03;10.00;99.90
70269;DHT22;58514;48.398;-4.274;2023-01-13T17:32:28;10.00;99.90
70269;DHT22;58514;48.398;-4.274;2023-01-13T17:34:54;10.00;99.90
70269;DHT22;58514;48.398;-4.274;2023-01-13T17:37:20;10.00;99.90
70269;DHT22;58514;48.398;-4.274;2023-01-13T17:39:45;10.00;99.90
70269;DHT22;58514;48.398;-4.274;2023-01-13T17:42:13;10.00;99.90
70269;DHT22;58514;48.398;-4.274;2023-01-13T17:44:38;10.00;99.90
70269;DHT22;58514;48.398;-4.274;2023-01-13T17:47:04;10.00;99.90